Time;durP1;ratioP1;P1;durP2;ratioP2;P2;SDS_P1;SDS_P2;PMS_P1;PMS_P2;Temp;Humidity;BMP_temperature;BMP_pressure;BME280_temperature;BME280_humidity;BME280_pressure;Samples;Min_cycle;Max_cycle;Signal;HPM_P1;HPM_P2
2021/11/29 00:00:51;;;;;;;9.63;6.50;;;14.40;81.80;;;;;;5072665;28;20043;-65
2021/11/29 00:03:20;;;;;;;7.88;4.90;;;14.40;81.40;;;;;;5095174;28;20047;-65
2021/11/29 00:05:45;;;;;;;19.42;7.10;;;14.50;81.30;;;;;;5088277;28;20043;-65
2021/11/29 00:08:11;;;;;;;16.25;8.23;;;14.50;82.20;;;;;;5095555;28;20488;-65
2021/11/29 00:10:37;;;;;;;14.55;7.53;;;14.70;83.60;;;;;;5094445;28;20566;-65
2021/11/29 00:13:04;;;;;;;10.98;6.80;;;14.80;84.00;;;;;;5094272;28;20583;-65
2021/11/29 00:15:30;;;;;;;13.85;7.60;;;15.00;84.60;;;;;;5094417;28;20395;-65
2021/11/29 00:17:56;;;;;;;11.05;7.03;;;15.00;83.40;;;;;;5094724;28;20043;-65
2021/11/29 00:20:22;;;;;;;7.18;2.40;;;14.80;82.80;;;;;;5094726;28;20047;-65
2021/11/29 00:22:48;;;;;;;12.73;7.50;;;14.50;79.60;;;;;;5098685;28;20554;-65
2021/11/29 00:25:15;;;;;;;13.27;5.55;;;14.40;81.50;;;;;;5087659;28;20057;-64
2021/11/29 00:27:41;;;;;;;10.13;6.72;;;14.50;83.10;;;;;;5099725;28;20172;-64
2021/11/29 00:30:10;;;;;;;10.18;6.35;;;14.50;83.90;;;;;;5104488;28;20028;-64
2021/11/29 00:32:37;;;;;;;10.43;6.20;;;14.60;84.30;;;;;;5097231;28;20075;-64
2021/11/29 00:35:03;;;;;;;10.07;4.35;;;14.60;84.00;;;;;;5097888;28;20549;-64
2021/11/29 00:37:29;;;;;;;10.68;6.10;;;14.70;82.60;;;;;;5098473;28;20035;-65
2021/11/29 00:39:54;;;;;;;10.43;6.13;;;14.60;82.50;;;;;;5098044;28;20046;-63
2021/11/29 00:42:20;;;;;;;13.95;6.13;;;14.40;82.50;;;;;;5096656;28;20044;-65
2021/11/29 00:44:46;;;;;;;12.30;6.00;;;14.20;83.50;;;;;;5097822;28;21053;-65
2021/11/29 00:47:11;;;;;;;8.07;5.65;;;14.10;83.80;;;;;;5099308;28;20050;-65
2021/11/29 00:49:37;;;;;;;8.25;5.07;;;14.00;84.10;;;;;;5096786;28;20050;-64
2021/11/29 00:52:03;;;;;;;10.18;5.97;;;14.00;84.00;;;;;;5096854;28;20036;-64
2021/11/29 00:54:29;;;;;;;11.00;5.57;;;14.00;84.90;;;;;;5103294;28;20063;-66
2021/11/29 00:56:54;;;;;;;9.85;5.25;;;14.00;84.70;;;;;;5097405;28;20159;-65
2021/11/29 00:59:20;;;;;;;10.35;4.88;;;14.00;84.60;;;;;;5097827;28;20040;-65
2021/11/29 01:01:46;;;;;;;11.10;5.13;;;14.20;84.60;;;;;;5095907;28;20110;-65
2021/11/29 01:04:12;;;;;;;8.27;5.00;;;14.00;82.30;;;;;;5097208;28;20039;-65
2021/11/29 01:06:38;;;;;;;2.70;1.20;;;13.40;83.10;;;;;;5097533;28;20070;-65
2021/11/29 01:09:04;;;;;;;5.47;3.20;;;13.30;82.10;;;;;;5085264;28;20089;-64
2021/11/29 01:11:31;;;;;;;7.18;4.15;;;13.00;80.40;;;;;;5097169;28;20055;-65
2021/11/29 01:13:57;;;;;;;5.88;3.47;;;12.90;82.90;;;;;;5095768;28;20802;-65
2021/11/29 01:16:23;;;;;;;6.93;3.40;;;12.70;84.10;;;;;;5096361;28;20040;-65
2021/11/29 01:18:49;;;;;;;7.38;3.42;;;12.70;84.80;;;;;;5098043;28;20142;-64
2021/11/29 01:21:15;;;;;;;6.68;4.28;;;12.60;83.70;;;;;;5099224;28;20095;-65
2021/11/29 01:23:41;;;;;;;7.43;3.95;;;12.90;85.70;;;;;;5097133;28;20064;-65
2021/11/29 01:26:07;;;;;;;4.18;2.20;;;13.40;85.90;;;;;;5097276;28;20483;-65
2021/11/29 01:28:33;;;;;;;7.25;3.75;;;13.70;83.50;;;;;;5098932;28;20240;-65
2021/11/29 01:30:59;;;;;;;8.20;3.88;;;14.00;83.40;;;;;;5096721;28;20563;-65
2021/11/29 01:33:24;;;;;;;6.85;3.72;;;14.10;82.90;;;;;;5069513;28;20043;-65
2021/11/29 01:35:50;;;;;;;5.18;3.05;;;14.30;83.00;;;;;;5096491;28;20399;-65
2021/11/29 01:38:16;;;;;;;6.55;3.13;;;14.60;82.30;;;;;;5079868;28;20050;-65
2021/11/29 01:40:42;;;;;;;4.20;2.60;;;14.80;81.80;;;;;;5096876;28;20049;-66
2021/11/29 01:43:10;;;;;;;5.00;2.92;;;14.90;80.70;;;;;;5094505;28;20391;-65
2021/11/29 01:45:42;;;;;;;3.83;2.38;;;15.00;79.60;;;;;;5085781;28;20054;-66
2021/11/29 01:48:09;;;;;;;4.60;2.97;;;15.10;79.50;;;;;;5097592;28;20369;-65
2021/11/29 01:50:37;;;;;;;6.03;2.97;;;15.10;79.40;;;;;;5096353;28;20102;-66
2021/11/29 01:53:03;;;;;;;4.13;2.33;;;15.10;79.10;;;;;;5095938;28;20048;-65
2021/11/29 01:55:29;;;;;;;3.38;2.58;;;15.20;79.30;;;;;;5097522;28;20131;-65
2021/11/29 01:57:54;;;;;;;4.53;2.35;;;15.20;79.20;;;;;;5095949;28;20036;-65
2021/11/29 02:00:24;;;;;;;4.28;2.42;;;15.20;78.90;;;;;;5096763;28;20121;-65
2021/11/29 02:02:52;;;;;;;4.57;2.30;;;15.20;79.00;;;;;;5095120;28;20047;-65
2021/11/29 02:05:19;;;;;;;3.08;1.92;;;15.20;78.90;;;;;;5095620;28;20042;-66
2021/11/29 02:07:45;;;;;;;4.10;2.00;;;15.30;78.50;;;;;;5096095;28;20031;-66
2021/11/29 02:10:11;;;;;;;3.75;2.03;;;15.40;78.10;;;;;;5101379;28;20093;-66
2021/11/29 02:12:37;;;;;;;3.50;1.55;;;15.40;77.90;;;;;;5095354;28;20065;-65
2021/11/29 02:15:04;;;;;;;3.50;1.70;;;15.50;77.70;;;;;;5085399;28;20434;-65
2021/11/29 02:17:30;;;;;;;2.90;1.27;;;15.50;77.30;;;;;;5095313;28;20051;-65
2021/11/29 02:19:56;;;;;;;3.47;1.83;;;15.50;77.20;;;;;;5096937;28;20403;-65
2021/11/29 02:22:22;;;;;;;4.15;1.88;;;15.50;77.10;;;;;;5096217;28;20046;-65
2021/11/29 02:24:48;;;;;;;2.95;1.60;;;15.50;77.00;;;;;;5094722;28;20048;-65
2021/11/29 02:27:14;;;;;;;3.17;1.30;;;15.60;76.80;;;;;;5095585;28;20392;-65
2021/11/29 02:29:41;;;;;;;2.15;1.20;;;15.60;76.70;;;;;;5097529;28;20728;-65
2021/11/29 02:32:07;;;;;;;3.05;1.75;;;15.60;76.60;;;;;;5095386;28;20031;-65
2021/11/29 02:34:33;;;;;;;3.85;2.00;;;15.50;76.50;;;;;;5094578;28;20041;-65
2021/11/29 02:37:02;;;;;;;3.33;1.50;;;15.50;76.50;;;;;;5095657;28;20039;-65
2021/11/29 02:39:28;;;;;;;2.75;1.10;;;15.50;76.50;;;;;;5102091;28;20514;-65
2021/11/29 02:41:57;;;;;;;5.28;1.35;;;15.40;76.70;;;;;;5095772;28;20051;-65
2021/11/29 02:44:23;;;;;;;3.22;1.30;;;15.40;76.20;;;;;;5093829;28;20178;-65
2021/11/29 02:46:49;;;;;;;2.45;1.27;;;15.40;76.50;;;;;;5084515;28;20047;-65
2021/11/29 02:49:15;;;;;;;3.72;1.30;;;15.40;76.50;;;;;;5095376;28;20036;-65
2021/11/29 02:51:47;;;;;;;2.60;1.23;;;15.40;76.60;;;;;;5101023;28;20050;-66
2021/11/29 02:54:24;;;;;;;1.70;0.83;;;15.40;76.60;;;;;;5078168;28;20047;-65
2021/11/29 02:56:52;;;;;;;2.50;1.15;;;15.50;76.50;;;;;;5094825;28;20630;-65
2021/11/29 02:59:24;;;;;;;3.53;1.30;;;15.50;76.10;;;;;;5094215;28;20071;-65
2021/11/29 03:01:53;;;;;;;2.35;1.13;;;15.50;76.40;;;;;;5095915;28;20067;-65
2021/11/29 03:04:23;;;;;;;2.50;1.33;;;15.50;76.30;;;;;;5094773;28;20053;-65
2021/11/29 03:06:50;;;;;;;1.73;0.77;;;15.50;76.20;;;;;;5094324;28;20074;-65
2021/11/29 03:09:16;;;;;;;2.28;1.05;;;15.50;76.10;;;;;;5094492;28;20063;-65
2021/11/29 03:11:43;;;;;;;2.40;0.88;;;15.50;76.10;;;;;;5096555;28;20123;-65
2021/11/29 03:14:09;;;;;;;2.22;0.73;;;15.60;76.20;;;;;;5094166;28;20468;-65
2021/11/29 03:16:35;;;;;;;1.67;0.80;;;15.60;76.10;;;;;;5094051;28;20063;-65
2021/11/29 03:19:01;;;;;;;1.60;0.80;;;15.60;76.10;;;;;;5095183;28;20040;-65
2021/11/29 03:21:27;;;;;;;3.28;1.05;;;15.60;76.00;;;;;;5095673;28;20052;-65
2021/11/29 03:23:56;;;;;;;3.63;0.95;;;15.60;75.80;;;;;;5077033;28;20040;-65
2021/11/29 03:26:23;;;;;;;1.48;0.70;;;15.60;75.60;;;;;;5094246;28;20181;-65
2021/11/29 03:28:56;;;;;;;1.58;0.65;;;15.60;75.70;;;;;;5095617;28;20054;-65
2021/11/29 03:31:27;;;;;;;3.78;0.90;;;15.70;75.60;;;;;;5101380;28;20047;-65
2021/11/29 03:33:57;;;;;;;2.13;0.30;;;15.70;75.50;;;;;;5094367;28;20114;-61
2021/11/29 03:36:28;;;;;;;1.92;0.30;;;15.60;72.10;;;;;;5101022;28;20044;-62
2021/11/29 03:38:55;;;;;;;1.17;0.10;;;15.00;68.50;;;;;;5096147;28;20587;-62
2021/11/29 03:41:21;;;;;;;10.30;0.85;;;14.10;67.80;;;;;;5095814;28;20811;-61
2021/11/29 03:43:47;;;;;;;2.67;0.30;;;13.40;68.90;;;;;;5095238;28;20063;-61
2021/11/29 03:46:13;;;;;;;1.58;0.47;;;12.60;70.00;;;;;;5095020;28;20429;-61
2021/11/29 03:48:39;;;;;;;1.65;0.30;;;12.00;72.20;;;;;;5095125;28;21499;-62
2021/11/29 03:51:04;;;;;;;0.55;0.10;;;11.50;73.60;;;;;;5088483;28;20079;-61
2021/11/29 03:53:31;;;;;;;1.38;0.10;;;10.90;74.80;;;;;;5096110;28;20040;-61
2021/11/29 03:55:58;;;;;;;0.35;0.10;;;10.20;76.10;;;;;;5097570;28;20092;-61
2021/11/29 03:58:24;;;;;;;2.17;0.43;;;9.50;78.00;;;;;;5098662;28;20357;-61
2021/11/29 04:00:50;;;;;;;0.93;0.30;;;8.90;79.80;;;;;;5104131;28;20043;-61
2021/11/29 04:03:16;;;;;;;0.88;0.30;;;8.40;81.50;;;;;;5092691;28;20046;-61
2021/11/29 04:05:41;;;;;;;3.78;0.20;;;7.90;83.00;;;;;;5098056;28;20040;-61
2021/11/29 04:08:07;;;;;;;1.90;0.30;;;7.60;84.40;;;;;;5104899;28;20076;-61
2021/11/29 04:10:34;;;;;;;0.55;0.20;;;7.30;86.00;;;;;;5098643;28;20093;-61
2021/11/29 04:13:00;;;;;;;1.58;0.20;;;7.00;86.70;;;;;;5100127;28;20702;-61
2021/11/29 04:15:26;;;;;;;2.20;0.30;;;6.80;87.60;;;;;;5097073;28;20071;-61
2021/11/29 04:17:52;;;;;;;1.33;0.20;;;6.60;88.30;;;;;;5097163;28;20036;-61
2021/11/29 04:20:18;;;;;;;1.95;0.20;;;6.40;88.80;;;;;;5096739;28;20097;-61
2021/11/29 04:22:45;;;;;;;1.30;0.32;;;6.30;89.40;;;;;;5100244;28;20082;-61
2021/11/29 04:25:14;;;;;;;0.28;0.10;;;6.20;90.00;;;;;;5098577;28;20077;-61
2021/11/29 04:27:42;;;;;;;2.08;0.25;;;6.10;90.20;;;;;;5098566;28;20055;-61
2021/11/29 04:30:13;;;;;;;1.65;0.20;;;6.00;90.40;;;;;;5104820;28;20051;-61
2021/11/29 04:32:40;;;;;;;3.00;0.35;;;6.00;90.60;;;;;;5104625;28;20927;-62
2021/11/29 04:35:07;;;;;;;0.80;0.47;;;5.90;90.80;;;;;;5096064;28;20038;-61
2021/11/29 04:37:33;;;;;;;6.50;0.95;;;5.80;91.10;;;;;;5103890;28;20035;-61
2021/11/29 04:39:58;;;;;;;0.95;0.32;;;5.80;91.20;;;;;;5097239;28;20047;-62
2021/11/29 04:42:24;;;;;;;2.08;0.80;;;5.80;91.30;;;;;;5098449;28;20108;-61
2021/11/29 04:44:50;;;;;;;1.30;0.60;;;5.80;91.50;;;;;;5098096;28;20130;-62
2021/11/29 04:47:15;;;;;;;1.20;0.80;;;5.80;91.80;;;;;;5096585;28;20035;-61
2021/11/29 04:49:41;;;;;;;2.13;1.17;;;5.80;91.70;;;;;;5103634;28;20113;-61
2021/11/29 04:52:08;;;;;;;2.25;1.10;;;5.70;91.80;;;;;;5081245;28;20093;-61
2021/11/29 04:54:33;;;;;;;1.80;0.88;;;5.80;91.80;;;;;;5098130;28;20055;-62
2021/11/29 04:56:59;;;;;;;1.60;1.02;;;5.80;91.80;;;;;;5080601;28;20040;-61
2021/11/29 04:59:25;;;;;;;1.73;1.30;;;5.80;91.90;;;;;;5097029;28;20456;-62
2021/11/29 05:01:50;;;;;;;2.72;1.80;;;5.70;92.10;;;;;;5096665;28;20031;-61
2021/11/29 05:04:16;;;;;;;7.00;2.72;;;5.70;92.20;;;;;;5097901;28;20039;-61
2021/11/29 05:06:42;;;;;;;3.55;1.73;;;5.70;92.40;;;;;;5102739;28;20032;-61
2021/11/29 05:09:10;;;;;;;2.53;1.52;;;5.70;92.50;;;;;;5098073;28;20044;-61
2021/11/29 05:11:35;;;;;;;2.97;1.45;;;5.70;92.50;;;;;;5103972;28;20399;-61
2021/11/29 05:14:02;;;;;;;3.25;2.03;;;5.70;92.50;;;;;;5098959;28;20035;-62
2021/11/29 05:16:28;;;;;;;2.63;1.80;;;5.70;92.50;;;;;;5096208;28;20043;-62
2021/11/29 05:18:54;;;;;;;4.78;2.13;;;5.70;92.50;;;;;;5095938;28;20086;-62
2021/11/29 05:21:20;;;;;;;5.20;2.17;;;5.70;92.60;;;;;;5096703;28;20044;-61
2021/11/29 05:23:47;;;;;;;5.88;2.83;;;5.70;92.80;;;;;;5098764;28;20062;-61
2021/11/29 05:26:17;;;;;;;4.43;2.55;;;5.60;92.90;;;;;;5103314;28;20048;-62
2021/11/29 05:28:43;;;;;;;14.10;3.15;;;5.50;93.10;;;;;;5097547;28;20031;-61
2021/11/29 05:31:09;;;;;;;7.20;3.45;;;5.40;93.10;;;;;;5085749;28;20136;-62
2021/11/29 05:33:34;;;;;;;8.68;3.95;;;5.40;93.30;;;;;;5099449;28;20483;-63
2021/11/29 05:36:00;;;;;;;6.25;4.53;;;5.40;93.40;;;;;;5095714;28;20040;-62
2021/11/29 05:38:26;;;;;;;5.70;4.03;;;5.40;93.60;;;;;;5085622;28;20039;-62
2021/11/29 05:40:52;;;;;;;7.65;4.40;;;5.40;93.40;;;;;;5096696;28;20035;-62
2021/11/29 05:43:17;;;;;;;8.32;4.95;;;5.40;93.40;;;;;;5095728;28;20031;-62
2021/11/29 05:45:43;;;;;;;12.35;4.97;;;5.50;93.40;;;;;;5085853;28;20039;-63
2021/11/29 05:48:09;;;;;;;12.57;7.05;;;5.40;93.50;;;;;;5094868;28;20082;-63
2021/11/29 05:50:37;;;;;;;9.95;7.10;;;5.40;93.60;;;;;;5096545;28;20048;-62
2021/11/29 05:53:03;;;;;;;8.18;5.53;;;5.40;93.60;;;;;;5096764;28;20039;-62
2021/11/29 05:55:28;;;;;;;9.13;5.68;;;5.50;93.60;;;;;;5096745;28;20039;-62
2021/11/29 05:57:54;;;;;;;10.48;6.93;;;5.40;93.60;;;;;;5095624;28;20032;-63
2021/11/29 06:00:20;;;;;;;10.02;6.47;;;5.50;93.50;;;;;;5095517;28;20061;-62
2021/11/29 06:02:46;;;;;;;8.25;5.68;;;5.50;93.60;;;;;;5102080;28;20036;-62
2021/11/29 06:05:13;;;;;;;9.23;5.72;;;5.60;93.60;;;;;;5101907;28;20040;-62
2021/11/29 06:07:39;;;;;;;9.05;5.63;;;5.70;93.70;;;;;;5096260;28;20127;-62
2021/11/29 06:10:06;;;;;;;8.07;4.65;;;5.70;93.60;;;;;;5060873;28;20047;-62
2021/11/29 06:12:32;;;;;;;10.38;4.40;;;5.80;93.40;;;;;;5101398;28;20112;-63
2021/11/29 06:14:58;;;;;;;10.05;5.53;;;5.70;93.20;;;;;;5097577;28;20063;-62
2021/11/29 06:17:24;;;;;;;9.25;4.55;;;5.70;93.10;;;;;;5071790;28;20170;-64
2021/11/29 06:19:49;;;;;;;8.65;5.50;;;5.70;93.30;;;;;;5084025;28;20063;-63
2021/11/29 06:22:15;;;;;;;9.65;6.05;;;5.70;93.20;;;;;;5084442;28;20507;-63
2021/11/29 06:24:41;;;;;;;14.75;7.13;;;5.70;93.00;;;;;;5095995;28;20031;-63
2021/11/29 06:27:07;;;;;;;7.45;5.25;;;5.70;92.90;;;;;;5096045;28;20047;-63
2021/11/29 06:29:32;;;;;;;11.40;5.95;;;5.70;92.90;;;;;;5102458;28;20062;-62
2021/11/29 06:31:58;;;;;;;8.48;5.70;;;5.70;93.00;;;;;;5095498;28;20043;-63
2021/11/29 06:34:25;;;;;;;8.52;5.60;;;5.70;93.00;;;;;;5096678;28;20580;-63
2021/11/29 06:36:52;;;;;;;11.45;6.57;;;5.70;93.00;;;;;;5095923;28;20375;-63
2021/11/29 06:39:20;;;;;;;12.68;7.43;;;5.70;92.90;;;;;;5094704;28;20036;-62
2021/11/29 06:41:47;;;;;;;13.90;6.28;;;5.70;92.80;;;;;;5095251;28;20039;-62
2021/11/29 06:44:13;;;;;;;10.45;5.45;;;5.80;92.60;;;;;;5095022;28;22208;-62
2021/11/29 06:46:39;;;;;;;10.00;5.85;;;5.70;92.60;;;;;;5089426;28;20527;-62
2021/11/29 06:49:05;;;;;;;8.45;5.68;;;5.70;92.70;;;;;;5095828;28;20032;-61
2021/11/29 06:51:32;;;;;;;9.20;5.57;;;5.70;92.60;;;;;;5095023;28;20047;-62
2021/11/29 06:53:58;;;;;;;9.98;6.35;;;5.70;92.60;;;;;;5095546;28;20043;-62
2021/11/29 06:56:24;;;;;;;9.80;5.15;;;5.80;92.60;;;;;;5096920;28;20043;-62
2021/11/29 06:58:50;;;;;;;10.90;5.50;;;5.80;92.70;;;;;;5095242;28;20027;-62
2021/11/29 07:01:15;;;;;;;9.52;5.22;;;5.90;92.70;;;;;;5101241;28;20051;-62
2021/11/29 07:03:42;;;;;;;6.70;3.63;;;5.90;92.60;;;;;;5095036;28;20492;-62
2021/11/29 07:06:08;;;;;;;7.40;4.43;;;5.90;92.60;;;;;;5095946;28;20476;-62
2021/11/29 07:08:34;;;;;;;7.95;5.13;;;6.00;92.80;;;;;;5093726;28;20040;-62
2021/11/29 07:11:00;;;;;;;8.98;4.75;;;6.00;93.00;;;;;;5093850;28;20059;-65
2021/11/29 07:13:26;;;;;;;10.55;5.20;;;6.10;93.10;;;;;;5095978;28;20047;-63
2021/11/29 07:15:53;;;;;;;8.23;4.97;;;6.10;92.90;;;;;;5100888;28;20392;-67
2021/11/29 07:18:18;;;;;;;121.00;83.93;;;6.00;92.50;;;;;;5094538;28;20088;-63
2021/11/29 07:20:44;;;;;;;114.45;75.00;;;6.00;93.00;;;;;;5083385;28;20043;-63
2021/11/29 07:23:10;;;;;;;89.22;57.13;;;6.10;93.40;;;;;;5092722;28;20042;-63
2021/11/29 07:25:36;;;;;;;46.83;30.30;;;6.20;93.80;;;;;;5077884;28;20046;-63
2021/11/29 07:28:02;;;;;;;67.20;44.33;;;6.30;93.90;;;;;;5097477;28;20040;-63
2021/11/29 07:30:28;;;;;;;42.35;24.25;;;6.40;94.10;;;;;;5097986;28;20185;-62
2021/11/29 07:32:55;;;;;;;31.10;20.80;;;6.50;94.30;;;;;;5099126;28;20898;-62
2021/11/29 07:35:23;;;;;;;18.23;11.20;;;6.60;94.70;;;;;;5080484;28;20119;-60
2021/11/29 07:37:49;;;;;;;7.38;5.50;;;6.70;94.60;;;;;;5097839;28;20475;-59
2021/11/29 07:40:15;;;;;;;8.02;5.30;;;6.90;94.10;;;;;;5101179;28;20130;-61
2021/11/29 07:42:40;;;;;;;9.70;5.38;;;6.90;93.30;;;;;;5097555;28;20071;-61
2021/11/29 07:45:11;;;;;;;10.90;6.72;;;6.90;92.80;;;;;;5099668;27;20043;-61
2021/11/29 07:47:37;;;;;;;9.07;5.68;;;6.90;92.40;;;;;;5098732;28;20048;-61
2021/11/29 07:50:03;;;;;;;8.40;5.97;;;6.90;92.40;;;;;;5081484;28;20047;-66
2021/11/29 08:02:18;;;;;;;10.85;6.15;;;7.40;91.40;;;;;;4944338;24;20606;-66
2021/11/29 08:04:46;;;;;;;9.98;6.38;;;7.60;91.00;;;;;;5213049;24;20401;-66
2021/11/29 08:10:23;;;;;;;12.43;6.32;;;8.00;89.60;;;;;;4816954;24;20050;-64
2021/11/29 08:12:50;;;;;;;10.80;5.60;;;8.10;89.30;;;;;;4796315;29;20141;-63
2021/11/29 08:15:16;;;;;;;6.70;4.75;;;8.30;88.50;;;;;;4801384;29;20153;-63
2021/11/29 08:17:42;;;;;;;8.68;5.57;;;8.40;87.70;;;;;;4813193;29;20230;-63
2021/11/29 08:20:08;;;;;;;6.30;4.68;;;8.40;86.90;;;;;;4800214;29;20085;-63
2021/11/29 08:22:34;;;;;;;10.02;6.47;;;8.20;86.80;;;;;;4799917;29;20043;-63
2021/11/29 08:25:01;;;;;;;12.02;5.60;;;8.10;87.70;;;;;;4780550;29;20053;-63
2021/11/29 08:27:27;;;;;;;9.82;5.95;;;7.90;87.10;;;;;;4800612;29;20046;-63
2021/11/29 08:29:53;;;;;;;12.05;6.35;;;7.80;87.50;;;;;;4783975;29;20058;-64
2021/11/29 08:32:18;;;;;;;10.43;6.00;;;7.70;87.50;;;;;;4779889;29;20050;-63
2021/11/29 08:34:44;;;;;;;14.40;6.38;;;7.70;88.00;;;;;;4814149;29;20046;-63
2021/11/29 08:37:12;;;;;;;10.07;5.25;;;7.90;88.30;;;;;;4800166;29;20380;-63
2021/11/29 08:39:38;;;;;;;10.48;5.88;;;8.20;88.00;;;;;;4819093;29;20054;-64
2021/11/29 08:42:05;;;;;;;10.18;6.22;;;8.50;87.20;;;;;;4798781;29;20423;-63
2021/11/29 08:44:30;;;;;;;10.20;5.80;;;8.70;86.40;;;;;;4816942;29;20047;-63
2021/11/29 08:46:57;;;;;;;10.38;6.15;;;8.60;85.80;;;;;;4800903;29;20496;-63
2021/11/29 08:49:24;;;;;;;8.23;4.82;;;8.50;85.90;;;;;;4798138;29;20601;-62
2021/11/29 08:51:50;;;;;;;10.27;5.35;;;8.30;86.50;;;;;;4770948;29;20043;-63
2021/11/29 08:54:17;;;;;;;11.70;6.53;;;8.20;87.00;;;;;;4796126;29;20084;-64
2021/11/29 08:56:46;;;;;;;10.07;5.10;;;8.00;87.50;;;;;;4795654;29;20043;-64
2021/11/29 08:59:12;;;;;;;9.80;5.55;;;8.00;88.00;;;;;;4794908;29;20050;-65
2021/11/29 09:01:38;;;;;;;13.10;5.57;;;7.90;88.50;;;;;;4798831;29;20050;-65
2021/11/29 09:04:03;;;;;;;11.10;8.13;;;7.90;89.20;;;;;;4786809;29;20049;-65
2021/11/29 09:06:29;;;;;;;14.13;8.80;;;7.90;89.20;;;;;;4800719;29;20535;-65
2021/11/29 09:08:55;;;;;;;11.13;6.43;;;7.80;89.20;;;;;;4779283;29;20449;-67
2021/11/29 09:11:21;;;;;;;9.35;6.90;;;7.80;89.90;;;;;;4779687;29;20069;-64
2021/11/29 09:13:46;;;;;;;10.38;6.70;;;7.80;90.20;;;;;;4775458;29;20137;-64
2021/11/29 09:16:15;;;;;;;7.85;5.63;;;7.80;90.20;;;;;;4786236;29;20079;-64
2021/11/29 09:18:41;;;;;;;9.60;5.05;;;7.70;90.30;;;;;;4790375;29;20051;-64
2021/11/29 09:21:11;;;;;;;7.50;5.20;;;7.80;90.40;;;;;;4790789;29;20093;-63
2021/11/29 09:23:37;;;;;;;7.88;5.15;;;7.80;90.30;;;;;;4782357;29;20346;-65
2021/11/29 09:26:03;;;;;;;7.53;5.35;;;7.80;90.50;;;;;;4775929;29;20046;-65
2021/11/29 09:28:29;;;;;;;7.82;4.68;;;7.80;90.70;;;;;;4774700;29;20126;-65
2021/11/29 09:30:55;;;;;;;6.40;4.25;;;7.80;90.60;;;;;;4775809;29;20527;-65
2021/11/29 09:33:21;;;;;;;8.45;4.55;;;7.80;90.80;;;;;;4775337;29;20103;-65
2021/11/29 09:35:47;;;;;;;7.15;4.97;;;7.90;91.10;;;;;;4758337;29;20051;-67
2021/11/29 09:38:13;;;;;;;7.32;4.80;;;7.90;91.00;;;;;;4767272;29;20070;-66
2021/11/29 09:40:40;;;;;;;7.13;4.45;;;7.90;90.60;;;;;;4772079;29;20170;-65
2021/11/29 09:43:09;;;;;;;6.88;4.85;;;7.80;90.60;;;;;;4772769;29;20039;-65
2021/11/29 09:45:36;;;;;;;9.98;4.72;;;7.80;91.00;;;;;;4773502;29;20054;-66
2021/11/29 09:48:02;;;;;;;8.02;5.45;;;7.80;91.10;;;;;;4774176;29;20527;-65
2021/11/29 09:50:29;;;;;;;7.03;5.45;;;7.80;91.00;;;;;;4769266;29;20677;-66
2021/11/29 09:52:56;;;;;;;8.38;5.43;;;7.80;90.90;;;;;;4771538;29;20188;-66
2021/11/29 09:55:25;;;;;;;5.82;4.22;;;7.80;90.80;;;;;;4772407;29;20045;-65
2021/11/29 09:57:52;;;;;;;7.38;4.93;;;7.70;90.70;;;;;;4772176;29;20687;-65
2021/11/29 10:00:29;;;;;;;10.00;5.75;;;7.80;91.30;;;;;;4754830;29;20074;-64
2021/11/29 10:02:56;;;;;;;7.68;4.78;;;7.80;91.10;;;;;;4768114;29;20155;-66
2021/11/29 10:05:23;;;;;;;7.55;4.28;;;7.90;91.40;;;;;;4783147;29;20108;-66
2021/11/29 10:07:49;;;;;;;8.68;5.25;;;7.90;91.40;;;;;;4773823;29;20054;-66
2021/11/29 10:10:24;;;;;;;6.38;4.47;;;7.90;91.20;;;;;;4773370;29;20656;-65
2021/11/29 10:12:54;;;;;;;7.60;5.28;;;7.90;90.90;;;;;;4768362;29;20046;-67
2021/11/29 10:15:23;;;;;;;7.03;4.65;;;7.90;90.90;;;;;;4771826;29;20119;-67
2021/11/29 10:17:52;;;;;;;7.82;4.70;;;7.80;90.80;;;;;;4773198;29;20446;-66
2021/11/29 10:20:18;;;;;;;6.45;4.15;;;7.80;90.80;;;;;;4768799;29;20059;-66
2021/11/29 10:23:05;;;;;;;5.82;4.00;;;7.90;91.10;;;;;;4759707;29;20103;-67
2021/11/29 10:25:31;;;;;;;6.82;4.35;;;8.00;91.30;;;;;;4800323;29;20131;-66
2021/11/29 10:27:57;;;;;;;6.55;4.00;;;8.10;91.30;;;;;;4761451;29;20165;-66
2021/11/29 10:30:26;;;;;;;8.45;5.00;;;8.20;91.30;;;;;;4761048;29;20107;-66
2021/11/29 10:32:52;;;;;;;8.23;4.53;;;8.30;91.00;;;;;;4776749;29;20058;-66
2021/11/29 10:35:33;;;;;;;6.05;3.90;;;8.40;90.90;;;;;;4774134;29;20050;-65
2021/11/29 10:38:00;;;;;;;5.78;4.25;;;8.40;90.40;;;;;;4783373;29;20053;-66
2021/11/29 10:40:27;;;;;;;7.00;4.10;;;8.40;90.40;;;;;;4769236;29;20049;-65
2021/11/29 10:42:53;;;;;;;6.20;4.32;;;8.40;90.50;;;;;;4785135;29;20085;-66
2021/11/29 10:45:25;;;;;;;9.75;4.20;;;8.40;90.40;;;;;;4786286;29;20115;-66
2021/11/29 10:47:53;;;;;;;10.38;5.10;;;8.50;90.50;;;;;;4784031;29;20130;-66
2021/11/29 10:50:24;;;;;;;11.25;4.07;;;8.50;90.50;;;;;;4783010;29;20046;-66
2021/11/29 10:53:06;;;;;;;7.03;4.32;;;8.50;90.30;;;;;;4786514;29;20054;-66
2021/11/29 10:55:52;;;;;;;8.43;4.00;;;8.50;90.20;;;;;;4782822;29;20419;-65
2021/11/29 10:58:18;;;;;;;7.32;4.13;;;8.50;90.30;;;;;;4783519;29;20051;-65
2021/11/29 11:00:43;;;;;;;6.10;4.18;;;8.50;90.40;;;;;;4760565;29;20526;-66
2021/11/29 11:03:09;;;;;;;5.93;3.33;;;8.50;90.30;;;;;;4784402;29;20126;-67
2021/11/29 11:05:59;;;;;;;6.32;3.75;;;8.50;90.60;;;;;;4783052;29;20069;-67
2021/11/29 11:08:33;;;;;;;4.60;3.38;;;8.60;90.80;;;;;;4789861;29;20061;-66
2021/11/29 11:10:59;;;;;;;5.40;3.55;;;8.70;90.70;;;;;;4783348;29;20054;-66
2021/11/29 11:13:25;;;;;;;5.75;4.25;;;8.70;90.70;;;;;;4774597;29;20050;-66
2021/11/29 11:15:51;;;;;;;6.57;3.67;;;8.90;90.90;;;;;;4762274;29;20146;-66
2021/11/29 11:18:17;;;;;;;8.07;2.28;;;8.90;90.70;;;;;;4783428;29;20492;-68
2021/11/29 11:20:42;;;;;;;8.52;2.35;;;9.20;91.80;;;;;;4784864;29;20046;-67
2021/11/29 11:23:08;;;;;;;8.23;2.60;;;10.10;94.10;;;;;;4781170;29;20082;-66
2021/11/29 11:25:36;;;;;;;7.00;2.17;;;11.00;94.30;;;;;;4784268;29;20472;-66
2021/11/29 11:28:04;;;;;;;6.55;2.25;;;11.80;94.10;;;;;;4761473;29;20082;-66
2021/11/29 11:30:33;;;;;;;7.25;2.25;;;12.40;93.50;;;;;;4782560;29;20553;-68
2021/11/29 11:33:05;;;;;;;4.53;2.20;;;12.90;92.80;;;;;;4783765;29;20121;-69
2021/11/29 11:35:33;;;;;;;8.50;2.58;;;13.30;92.20;;;;;;4775867;29;20066;-68
2021/11/29 11:38:02;;;;;;;5.50;2.00;;;13.60;91.60;;;;;;4803860;29;20058;-67
2021/11/29 11:40:32;;;;;;;3.78;1.50;;;13.80;91.10;;;;;;4775641;29;20070;-67
2021/11/29 11:42:59;;;;;;;4.18;2.03;;;14.10;90.50;;;;;;4787782;29;20039;-67
2021/11/29 11:45:28;;;;;;;5.60;1.58;;;14.20;89.90;;;;;;4787079;29;20047;-67
2021/11/29 11:47:57;;;;;;;4.30;1.90;;;14.40;88.70;;;;;;4784992;29;20553;-66
2021/11/29 11:50:25;;;;;;;4.07;1.67;;;14.50;87.70;;;;;;4785746;29;20715;-67
2021/11/29 11:52:54;;;;;;;3.35;1.48;;;14.60;87.10;;;;;;4788566;29;20133;-67
2021/11/29 11:55:22;;;;;;;6.15;1.98;;;14.70;86.40;;;;;;4761227;29;20047;-68
2021/11/29 11:57:50;;;;;;;2.30;1.55;;;14.70;85.80;;;;;;4786694;29;20207;-68
2021/11/29 12:00:17;;;;;;;2.25;1.48;;;14.80;85.20;;;;;;4770893;29;20050;-68
2021/11/29 12:02:42;;;;;;;4.00;1.75;;;14.80;84.70;;;;;;4787517;29;20474;-68
2021/11/29 12:05:19;;;;;;;3.97;1.65;;;14.80;84.30;;;;;;4787444;29;20049;-67
2021/11/29 12:07:46;;;;;;;3.00;1.83;;;14.90;83.80;;;;;;4777204;29;20451;-67
2021/11/29 12:10:42;;;;;;;3.05;1.63;;;15.00;82.40;;;;;;4788221;29;20141;-68
2021/11/29 12:13:11;;;;;;;2.97;1.60;;;15.00;82.60;;;;;;4777293;29;20042;-70
2021/11/29 12:15:41;;;;;;;3.80;1.45;;;15.00;82.40;;;;;;4772294;29;20091;-67
2021/11/29 12:18:08;;;;;;;2.22;1.33;;;15.10;82.10;;;;;;4778528;29;20107;-68
2021/11/29 12:20:34;;;;;;;4.93;1.60;;;15.00;81.90;;;;;;4778501;29;20112;-68
2021/11/29 12:23:00;;;;;;;2.00;1.13;;;15.00;81.80;;;;;;4789214;29;20051;-67
2021/11/29 12:25:26;;;;;;;4.78;1.23;;;15.10;81.50;;;;;;4770970;29;20031;-67
2021/11/29 12:28:02;;;;;;;2.75;1.70;;;15.10;80.90;;;;;;4790229;29;20454;-67
2021/11/29 12:30:45;;;;;;;2.65;1.77;;;15.20;80.20;;;;;;4789839;29;20054;-66
2021/11/29 12:33:13;;;;;;;2.17;1.38;;;15.20;80.00;;;;;;4789997;29;20491;-66
2021/11/29 12:35:56;;;;;;;1.60;1.08;;;15.20;79.20;;;;;;4782376;29;20039;-66
2021/11/29 12:38:22;;;;;;;2.00;1.20;;;15.30;79.10;;;;;;4788476;29;20483;-67
2021/11/29 12:40:56;;;;;;;2.33;1.63;;;15.30;78.90;;;;;;4772190;29;20451;-66
2021/11/29 12:43:41;;;;;;;2.10;1.63;;;15.40;78.20;;;;;;4786263;29;20046;-66
2021/11/29 12:46:35;;;;;;;2.85;1.10;;;15.40;77.60;;;;;;4786437;29;20385;-67
2021/11/29 12:49:04;;;;;;;3.50;1.33;;;15.40;77.50;;;;;;4789180;29;20050;-68
2021/11/29 12:51:41;;;;;;;2.30;1.70;;;15.40;77.40;;;;;;4789160;29;20082;-67
2021/11/29 12:54:36;;;;;;;3.50;1.05;;;15.40;76.90;;;;;;4795923;29;20057;-68
2021/11/29 12:57:29;;;;;;;4.18;1.90;;;15.40;77.40;;;;;;4791492;29;20046;-67
2021/11/29 12:59:59;;;;;;;1.75;0.90;;;15.40;77.60;;;;;;4786898;29;20511;-67
2021/11/29 13:02:50;;;;;;;1.77;0.95;;;15.40;77.20;;;;;;4780188;29;20042;-69
2021/11/29 13:05:25;;;;;;;2.55;1.13;;;15.40;77.20;;;;;;4788685;29;20061;-69